Time;durP1;ratioP1;P1;durP2;ratioP2;P2;SDS_P1;SDS_P2;PMS_P1;PMS_P2;Temp;Humidity;BMP_temperature;BMP_pressure;BME280_temperature;BME280_humidity;BME280_pressure;Samples;Min_cycle;Max_cycle;Signal;HPM_P1;HPM_P2
2022/12/22 03:27:47;;;;;;;1.25;0.85;;;7.80;95.60;;;;;;5009944;28;20045;-64
2022/12/22 03:30:12;;;;;;;0.00;0.00;;;7.70;95.60;;;;;;5011267;28;20089;-65
2022/12/22 03:32:38;;;;;;;0.00;0.00;;;7.70;95.60;;;;;;5010928;28;20049;-65
2022/12/22 03:35:04;;;;;;;0.10;0.10;;;7.80;95.60;;;;;;5010501;28;20442;-64
2022/12/22 03:37:29;;;;;;;1.35;0.80;;;7.80;95.60;;;;;;5016925;28;20044;-66
2022/12/22 03:39:55;;;;;;;0.00;0.00;;;7.70;95.60;;;;;;5028531;28;20046;-65
2022/12/22 03:47:51;;;;;;;0.00;0.00;;;7.80;95.60;;;;;;5031146;28;20129;-65
2022/12/22 03:50:17;;;;;;;0.00;0.00;;;7.80;95.60;;;;;;5031851;28;20522;-65
2022/12/22 03:52:42;;;;;;;0.00;0.00;;;7.80;95.50;;;;;;5031646;28;20049;-66
2022/12/22 03:55:08;;;;;;;0.00;0.00;;;7.80;95.50;;;;;;5030796;28;20038;-65
2022/12/22 03:57:33;;;;;;;0.10;0.10;;;7.80;95.50;;;;;;5031620;28;20124;-65
2022/12/22 03:59:59;;;;;;;0.00;0.00;;;7.80;95.50;;;;;;5030742;28;20081;-65
2022/12/22 04:02:25;;;;;;;0.32;0.32;;;7.80;95.50;;;;;;5030576;28;20045;-65
2022/12/22 04:04:50;;;;;;;0.00;0.00;;;7.80;95.60;;;;;;5021374;28;20034;-66
2022/12/22 04:07:16;;;;;;;1.13;0.25;;;7.80;95.50;;;;;;5035900;28;20033;-65
2022/12/22 04:12:53;;;;;;;0.08;0.08;;;7.70;95.50;;;;;;5031898;28;20040;-66
2022/12/22 04:15:11;;;;;;;0.10;0.10;;;7.70;95.50;;;;;;5030550;28;20054;-65
2022/12/22 04:17:36;;;;;;;0.00;0.00;;;7.70;95.50;;;;;;5029887;28;20065;-65
2022/12/22 04:20:02;;;;;;;0.00;0.00;;;7.70;95.50;;;;;;5027873;28;20179;-65
2022/12/22 04:22:28;;;;;;;0.20;0.20;;;7.70;95.50;;;;;;5030453;28;20041;-66
2022/12/22 04:24:54;;;;;;;0.00;0.00;;;7.70;95.50;;;;;;5030955;28;20057;-66
2022/12/22 04:27:19;;;;;;;0.00;0.00;;;7.80;95.50;;;;;;5029763;28;20052;-67
2022/12/22 04:29:45;;;;;;;0.28;0.28;;;7.70;95.50;;;;;;5029340;28;20048;-68
2022/12/22 04:32:10;;;;;;;0.00;0.00;;;8.00;96.10;;;;;;5029646;28;20390;-66
2022/12/22 04:34:36;;;;;;;0.00;0.00;;;8.40;96.30;;;;;;5029615;28;20061;-67
2022/12/22 04:37:01;;;;;;;0.00;0.00;;;8.50;95.70;;;;;;5029757;28;20037;-63
2022/12/22 04:39:27;;;;;;;0.05;0.05;;;8.40;95.60;;;;;;5029551;28;20061;-67
2022/12/22 04:41:53;;;;;;;0.00;0.00;;;8.40;95.30;;;;;;5029472;28;20041;-67
2022/12/22 04:44:18;;;;;;;0.00;0.00;;;8.30;95.40;;;;;;5028891;28;20041;-67
2022/12/22 04:46:45;;;;;;;0.10;0.10;;;8.30;95.40;;;;;;5011680;28;20631;-67
2022/12/22 04:49:10;;;;;;;0.00;0.00;;;8.20;95.30;;;;;;5030720;28;20052;-67
2022/12/22 04:51:36;;;;;;;0.20;0.15;;;8.20;95.30;;;;;;5012961;28;20053;-67
2022/12/22 04:54:01;;;;;;;0.00;0.00;;;8.10;95.20;;;;;;5030314;28;20669;-67
2022/12/22 04:56:27;;;;;;;0.00;0.00;;;8.10;95.30;;;;;;5030535;28;20516;-67
2022/12/22 04:58:52;;;;;;;0.00;0.00;;;8.10;95.20;;;;;;5030911;28;20100;-67
2022/12/22 05:01:19;;;;;;;0.00;0.00;;;8.00;95.10;;;;;;5030491;28;20045;-67
2022/12/22 05:03:44;;;;;;;0.00;0.00;;;8.00;95.10;;;;;;5030779;28;20060;-67
2022/12/22 05:06:10;;;;;;;0.00;0.00;;;7.90;95.30;;;;;;5030267;28;20049;-67
2022/12/22 05:08:36;;;;;;;0.38;0.38;;;7.90;95.30;;;;;;5030493;28;20052;-67
2022/12/22 05:11:02;;;;;;;0.00;0.00;;;7.90;95.20;;;;;;5030225;28;20477;-67
2022/12/22 05:13:29;;;;;;;0.30;0.30;;;7.90;95.30;;;;;;5030395;28;20069;-66
2022/12/22 05:16:01;;;;;;;0.17;0.17;;;7.80;95.20;;;;;;5012663;28;20124;-66
2022/12/22 05:18:26;;;;;;;;;;;7.80;95.30;;;;;;5012965;28;20156;-67
2022/12/22 05:20:52;;;;;;;0.10;0.10;;;7.90;95.30;;;;;;5012878;28;20396;-66
2022/12/22 05:23:17;;;;;;;0.25;0.25;;;7.90;95.30;;;;;;5030440;28;20047;-67
2022/12/22 05:25:43;;;;;;;0.00;0.00;;;7.80;95.30;;;;;;4996475;28;20053;-67
2022/12/22 05:28:08;;;;;;;0.15;0.15;;;7.80;95.20;;;;;;5030173;28;20041;-66
2022/12/22 05:30:34;;;;;;;0.40;0.40;;;7.80;95.20;;;;;;5030122;28;20052;-67
2022/12/22 05:32:59;;;;;;;0.55;0.55;;;7.80;95.20;;;;;;5029888;28;20045;-66
2022/12/22 05:35:25;;;;;;;0.10;0.10;;;7.80;95.20;;;;;;5030237;28;20077;-67
2022/12/22 05:37:50;;;;;;;1.60;0.73;;;7.70;95.10;;;;;;5030034;28;20136;-67
2022/12/22 05:40:16;;;;;;;0.45;0.43;;;7.70;95.30;;;;;;5029769;28;20057;-66
2022/12/22 05:42:42;;;;;;;0.10;0.10;;;7.70;95.30;;;;;;5030133;28;20057;-67
2022/12/22 05:45:15;;;;;;;0.00;0.00;;;7.70;95.30;;;;;;5030085;28;20437;-67
2022/12/22 05:47:42;;;;;;;0.73;0.73;;;7.60;95.20;;;;;;5029984;28;20041;-67
2022/12/22 05:50:09;;;;;;;0.10;0.10;;;7.70;95.30;;;;;;5029996;28;20056;-66
2022/12/22 05:52:35;;;;;;;0.90;0.52;;;7.60;95.30;;;;;;5033257;28;20045;-66
2022/12/22 05:55:01;;;;;;;0.00;0.00;;;7.60;95.30;;;;;;4999727;28;20045;-67
2022/12/22 05:57:26;;;;;;;0.40;0.40;;;7.60;95.30;;;;;;5033796;28;20049;-66
2022/12/22 05:59:52;;;;;;;0.00;0.00;;;7.50;95.30;;;;;;5033755;28;20048;-66
2022/12/22 06:02:17;;;;;;;0.28;0.28;;;7.60;95.40;;;;;;5033805;28;20049;-66
2022/12/22 06:04:43;;;;;;;0.00;0.00;;;7.50;95.40;;;;;;5015891;28;20042;-66
2022/12/22 06:07:09;;;;;;;0.00;0.00;;;7.50;95.40;;;;;;5016052;28;20494;-66
2022/12/22 06:09:34;;;;;;;0.00;0.00;;;7.50;95.30;;;;;;5033608;28;20486;-67
2022/12/22 06:12:00;;;;;;;0.00;0.00;;;7.40;95.40;;;;;;5033765;28;20138;-67
2022/12/22 06:14:25;;;;;;;1.60;1.35;;;7.40;95.30;;;;;;5033378;28;20046;-66
2022/12/22 06:16:51;;;;;;;0.08;0.08;;;7.40;95.40;;;;;;5033443;28;20561;-66
2022/12/22 06:19:16;;;;;;;0.00;0.00;;;7.30;95.30;;;;;;5015966;28;20049;-66
2022/12/22 06:21:42;;;;;;;0.00;0.00;;;7.20;95.40;;;;;;5033325;28;20045;-66
2022/12/22 06:24:08;;;;;;;0.00;0.00;;;7.30;95.40;;;;;;5015916;28;20037;-67
2022/12/22 06:26:33;;;;;;;0.20;0.20;;;7.30;95.40;;;;;;5033401;28;20498;-66
2022/12/22 06:28:59;;;;;;;0.00;0.00;;;7.20;95.30;;;;;;5033075;28;20056;-66
2022/12/22 06:31:24;;;;;;;0.00;0.00;;;7.10;95.20;;;;;;5033265;28;20092;-66
2022/12/22 06:33:50;;;;;;;0.00;0.00;;;7.10;95.20;;;;;;5033288;28;20056;-67
2022/12/22 06:36:15;;;;;;;0.15;0.15;;;7.00;95.30;;;;;;5033271;28;20077;-66
2022/12/22 06:38:41;;;;;;;0.00;0.00;;;6.90;95.20;;;;;;5032674;28;20053;-67
2022/12/22 06:41:07;;;;;;;0.25;0.25;;;6.80;95.10;;;;;;5032478;28;20100;-67
2022/12/22 06:43:32;;;;;;;0.32;0.32;;;6.70;95.30;;;;;;5033028;28;20041;-66
2022/12/22 06:45:58;;;;;;;0.00;0.00;;;6.70;95.30;;;;;;5033040;28;20512;-66
2022/12/22 06:48:23;;;;;;;0.00;0.00;;;6.60;95.20;;;;;;5033185;28;20057;-67
2022/12/22 06:50:49;;;;;;;0.00;0.00;;;6.60;95.30;;;;;;5032743;28;20045;-66
2022/12/22 06:53:15;;;;;;;1.00;0.95;;;6.60;95.20;;;;;;5032982;28;20076;-66
2022/12/22 06:55:41;;;;;;;0.25;0.20;;;6.60;95.30;;;;;;5033038;28;20041;-67
2022/12/22 06:58:06;;;;;;;0.00;0.00;;;6.50;95.20;;;;;;5032967;28;20072;-66
2022/12/22 07:00:32;;;;;;;0.00;0.00;;;6.50;95.30;;;;;;5032387;28;20136;-67
2022/12/22 07:02:58;;;;;;;0.00;0.00;;;6.50;95.30;;;;;;5031586;28;20406;-67
2022/12/22 07:05:24;;;;;;;0.00;0.00;;;6.40;95.10;;;;;;5015189;28;20132;-66
2022/12/22 07:07:51;;;;;;;0.00;0.00;;;6.30;95.20;;;;;;5032698;28;20045;-67
2022/12/22 07:10:16;;;;;;;0.00;0.00;;;6.30;95.20;;;;;;4998342;28;20046;-67
2022/12/22 07:12:42;;;;;;;0.00;0.00;;;6.20;95.20;;;;;;5032588;28;20091;-66
2022/12/22 07:15:08;;;;;;;0.00;0.00;;;6.20;95.20;;;;;;5032634;28;20076;-67
2022/12/22 07:17:34;;;;;;;0.00;0.00;;;6.10;95.00;;;;;;5014862;28;20045;-66
2022/12/22 07:20:00;;;;;;;0.00;0.00;;;6.00;95.00;;;;;;4998872;28;20486;-67
2022/12/22 07:22:25;;;;;;;0.00;0.00;;;6.00;95.10;;;;;;5032471;28;20041;-66
2022/12/22 07:24:51;;;;;;;0.00;0.00;;;6.00;95.30;;;;;;5032062;28;20686;-66
2022/12/22 07:27:17;;;;;;;0.00;0.00;;;5.90;95.20;;;;;;5032408;28;20029;-67
2022/12/22 07:29:42;;;;;;;0.13;0.13;;;5.90;95.30;;;;;;5032203;28;20053;-66
2022/12/22 07:32:08;;;;;;;0.05;0.05;;;6.00;95.30;;;;;;5031949;28;20068;-66
2022/12/22 07:34:33;;;;;;;0.00;0.00;;;5.90;95.30;;;;;;5032154;28;20095;-66
2022/12/22 07:36:59;;;;;;;0.00;0.00;;;6.00;95.40;;;;;;5032175;28;20410;-66
2022/12/22 07:39:25;;;;;;;0.03;0.03;;;6.00;95.30;;;;;;5031768;28;20057;-66
2022/12/22 07:44:34;;;;;;;0.03;0.03;;;6.00;95.30;;;;;;5014364;28;20061;-67
2022/12/22 07:47:00;;;;;;;0.00;0.00;;;6.00;95.30;;;;;;5031387;28;20100;-66
2022/12/22 07:52:10;;;;;;;0.10;0.10;;;6.00;95.20;;;;;;5031635;28;20077;-66
2022/12/22 07:54:35;;;;;;;0.00;0.00;;;6.00;95.20;;;;;;5031810;28;20476;-66
2022/12/22 07:57:01;;;;;;;0.00;0.00;;;6.00;95.30;;;;;;5031508;28;20041;-66
2022/12/22 07:59:26;;;;;;;0.00;0.00;;;6.00;95.20;;;;;;5013275;28;20609;-66
2022/12/22 08:01:52;;;;;;;0.00;0.00;;;6.00;95.20;;;;;;5031177;28;20489;-66
2022/12/22 08:04:18;;;;;;;0.00;0.00;;;5.90;95.20;;;;;;5031401;28;20140;-67
2022/12/22 08:06:44;;;;;;;0.00;0.00;;;5.90;95.20;;;;;;5031474;28;20071;-67
2022/12/22 08:09:14;;;;;;;0.00;0.00;;;5.90;95.20;;;;;;5031306;28;20057;-67
2022/12/22 08:11:40;;;;;;;0.00;0.00;;;5.90;95.20;;;;;;5030901;28;20508;-67
2022/12/22 08:14:05;;;;;;;0.00;0.00;;;5.90;95.20;;;;;;5031123;28;20038;-67
2022/12/22 08:16:31;;;;;;;0.00;0.00;;;5.90;95.20;;;;;;5031376;28;20858;-67
2022/12/22 08:18:57;;;;;;;0.05;0.05;;;5.90;95.20;;;;;;5031368;28;20060;-66
2022/12/22 08:21:23;;;;;;;0.00;0.00;;;5.90;95.20;;;;;;5030832;28;20040;-66
2022/12/22 08:23:49;;;;;;;0.00;0.00;;;5.90;95.30;;;;;;5031281;28;20033;-67
2022/12/22 08:26:26;;;;;;;0.00;0.00;;;5.90;95.30;;;;;;5013237;28;20053;-67
2022/12/22 08:28:58;;;;;;;0.00;0.00;;;5.90;95.30;;;;;;5031045;28;20045;-66
2022/12/22 08:31:26;;;;;;;0.00;0.00;;;5.90;95.30;;;;;;5031052;28;20129;-67
2022/12/22 08:33:53;;;;;;;0.03;0.03;;;5.90;95.20;;;;;;5031126;28;20103;-67
2022/12/22 08:36:18;;;;;;;0.00;0.00;;;5.90;95.20;;;;;;5030585;28;20045;-67
2022/12/22 08:38:45;;;;;;;0.00;0.00;;;5.90;95.20;;;;;;5030700;28;20374;-67
2022/12/22 08:41:13;;;;;;;0.03;0.03;;;5.90;95.10;;;;;;5030926;28;20053;-67
2022/12/22 08:43:38;;;;;;;0.10;0.10;;;5.90;95.20;;;;;;5030713;28;20095;-67
2022/12/22 08:46:04;;;;;;;0.30;0.30;;;5.90;95.20;;;;;;5030596;28;20037;-67
2022/12/22 08:48:30;;;;;;;0.00;0.00;;;5.90;95.20;;;;;;5030252;28;20037;-67
2022/12/22 08:50:55;;;;;;;0.08;0.08;;;5.90;95.10;;;;;;5030610;28;20080;-67
2022/12/22 08:53:21;;;;;;;0.00;0.00;;;5.90;95.10;;;;;;5030715;28;20045;-67
2022/12/22 08:55:54;;;;;;;0.00;0.00;;;5.90;95.20;;;;;;5030775;28;20405;-67
2022/12/22 08:58:20;;;;;;;0.00;0.00;;;5.90;95.20;;;;;;5030372;28;20041;-67
2022/12/22 09:00:46;;;;;;;0.00;0.00;;;5.90;95.20;;;;;;5030624;28;20041;-66
2022/12/22 09:03:12;;;;;;;0.45;0.45;;;5.90;95.20;;;;;;5013025;28;20057;-67
2022/12/22 09:05:38;;;;;;;0.00;0.00;;;5.90;95.20;;;;;;5030507;28;20132;-67
2022/12/22 09:08:07;;;;;;;0.00;0.00;;;5.90;95.20;;;;;;5012701;28;20124;-67
2022/12/22 09:10:33;;;;;;;0.00;0.00;;;5.90;95.20;;;;;;5012194;28;20038;-67
2022/12/22 09:12:58;;;;;;;0.00;0.00;;;5.90;95.20;;;;;;5030150;28;20054;-67
2022/12/22 09:15:24;;;;;;;0.00;0.00;;;5.90;95.20;;;;;;5012781;28;20083;-67
2022/12/22 09:17:49;;;;;;;2.10;1.23;;;6.00;95.30;;;;;;5030169;28;20367;-67
2022/12/22 09:20:15;;;;;;;0.00;0.00;;;6.00;95.40;;;;;;5030043;28;20038;-67
2022/12/22 09:22:41;;;;;;;0.00;0.00;;;6.10;95.30;;;;;;5030357;28;20077;-67
2022/12/22 09:25:07;;;;;;;0.00;0.00;;;6.10;95.30;;;;;;5012529;28;20046;-67
2022/12/22 09:27:33;;;;;;;0.00;0.00;;;6.10;95.30;;;;;;5032674;28;20053;-67
2022/12/22 09:29:58;;;;;;;0.10;0.10;;;6.10;95.30;;;;;;4998996;28;20405;-67
2022/12/22 09:32:24;;;;;;;0.00;0.00;;;6.10;95.40;;;;;;5033276;28;20088;-67
2022/12/22 09:34:49;;;;;;;0.00;0.00;;;6.10;95.40;;;;;;5033692;28;20046;-67
2022/12/22 09:37:16;;;;;;;0.00;0.00;;;6.10;95.50;;;;;;5032833;28;20049;-67
2022/12/22 09:39:41;;;;;;;0.00;0.00;;;6.20;95.50;;;;;;5033004;28;20136;-67
2022/12/22 09:42:17;;;;;;;0.00;0.00;;;6.20;95.40;;;;;;5032645;28;20140;-67
2022/12/22 09:44:45;;;;;;;0.00;0.00;;;6.20;95.40;;;;;;5032891;28;20050;-67
2022/12/22 09:47:21;;;;;;;0.00;0.00;;;6.20;95.30;;;;;;5032781;28;20041;-67
2022/12/22 09:49:47;;;;;;;0.00;0.00;;;6.30;95.40;;;;;;5032496;28;20064;-68
2022/12/22 09:52:46;;;;;;;0.35;0.35;;;6.30;95.50;;;;;;5032962;28;20045;-68
2022/12/22 09:55:40;;;;;;;1.95;0.65;;;6.30;95.40;;;;;;5032801;28;20057;-68
2022/12/22 09:58:40;;;;;;;0.00;0.00;;;6.40;95.40;;;;;;5031931;28;20053;-67
2022/12/22 10:01:27;;;;;;;0.10;0.10;;;6.40;95.40;;;;;;4972820;28;20057;-67
2022/12/22 10:04:13;;;;;;;0.00;0.00;;;6.40;95.40;;;;;;5014948;28;20057;-67
2022/12/22 10:06:53;;;;;;;0.30;0.30;;;6.50;95.40;;;;;;5032603;28;20417;-67
2022/12/22 10:09:23;;;;;;;0.00;0.00;;;6.50;95.30;;;;;;5032690;28;20042;-67
2022/12/22 10:11:54;;;;;;;0.00;0.00;;;6.50;95.40;;;;;;5032584;28;20045;-67
2022/12/22 10:14:24;;;;;;;0.00;0.00;;;6.50;95.30;;;;;;5032508;28;20436;-67
2022/12/22 10:17:21;;;;;;;0.00;0.00;;;6.50;95.30;;;;;;5032337;28;20569;-67
2022/12/22 10:19:49;;;;;;;0.00;0.00;;;6.60;95.30;;;;;;5032591;28;20048;-67
2022/12/22 10:22:32;;;;;;;0.00;0.00;;;6.60;95.30;;;;;;5032145;28;20410;-67
2022/12/22 10:25:00;;;;;;;0.00;0.00;;;6.60;95.30;;;;;;4998341;28;20057;-67
2022/12/22 10:27:30;;;;;;;0.10;0.10;;;6.60;95.30;;;;;;4997781;28;20053;-67
2022/12/22 10:30:18;;;;;;;0.00;0.00;;;6.60;95.30;;;;;;5032228;28;20045;-68
2022/12/22 10:33:17;;;;;;;0.00;0.00;;;6.70;95.30;;;;;;5032396;28;20136;-68
2022/12/22 10:35:55;;;;;;;0.00;0.00;;;6.70;95.30;;;;;;5032115;28;20045;-68
2022/12/22 10:38:32;;;;;;;0.00;0.00;;;6.80;95.30;;;;;;5031771;28;20386;-68
2022/12/22 10:41:13;;;;;;;0.00;0.00;;;6.70;95.20;;;;;;5031746;28;20046;-68
2022/12/22 10:43:47;;;;;;;0.00;0.00;;;6.80;95.20;;;;;;5032033;28;20509;-67
2022/12/22 10:46:12;;;;;;;0.00;0.00;;;6.80;95.20;;;;;;5032407;28;20049;-67
2022/12/22 10:48:39;;;;;;;0.10;0.10;;;6.80;95.20;;;;;;5031322;28;20045;-67
2022/12/22 10:51:07;;;;;;;0.00;0.00;;;6.90;95.20;;;;;;5031927;28;20449;-67
2022/12/22 10:53:44;;;;;;;0.75;0.75;;;6.90;95.20;;;;;;5031825;28;20495;-67
2022/12/22 10:56:26;;;;;;;0.03;0.03;;;7.00;95.20;;;;;;5031914;28;20045;-67
2022/12/22 10:59:03;;;;;;;0.00;0.00;;;7.00;95.30;;;;;;5013597;28;20131;-67
2022/12/22 11:01:34;;;;;;;4.28;2.83;;;7.10;95.30;;;;;;5031550;28;20038;-67
2022/12/22 11:04:35;;;;;;;0.00;0.00;;;7.10;95.10;;;;;;5031547;28;20052;-67
2022/12/22 11:07:07;;;;;;;0.00;0.00;;;7.10;95.10;;;;;;4931935;29;20087;-67
2022/12/22 11:09:32;;;;;;;0.33;0.33;;;7.10;95.00;;;;;;4984006;28;20056;-68
2022/12/22 11:12:01;;;;;;;0.00;0.00;;;7.20;95.10;;;;;;5031428;28;20281;-67
2022/12/22 11:14:52;;;;;;;0.00;0.00;;;7.10;94.90;;;;;;5013978;28;20049;-67
2022/12/22 11:17:44;;;;;;;0.00;0.00;;;7.20;94.90;;;;;;5031398;28;20171;-67
2022/12/22 11:20:31;;;;;;;0.00;0.00;;;7.20;94.90;;;;;;5031325;28;20045;-68
2022/12/22 11:23:09;;;;;;;0.00;0.00;;;7.30;94.90;;;;;;5030900;28;20383;-67
2022/12/22 11:26:04;;;;;;;0.90;0.90;;;7.30;94.80;;;;;;5031180;28;20053;-67
2022/12/22 11:28:53;;;;;;;0.00;0.00;;;7.30;94.80;;;;;;5031115;28;20175;-67
2022/12/22 11:32:20;;;;;;;0.00;0.00;;;7.40;94.70;;;;;;5013440;28;20049;-67
2022/12/22 11:34:57;;;;;;;1.38;0.75;;;7.40;94.70;;;;;;4900554;28;20062;-67
2022/12/22 11:37:55;;;;;;;0.00;0.00;;;7.40;94.60;;;;;;5030950;28;20480;-68
2022/12/22 11:40:37;;;;;;;0.00;0.00;;;7.50;94.40;;;;;;5030542;28;20469;-67
2022/12/22 11:43:29;;;;;;;0.00;0.00;;;7.50;94.50;;;;;;5031037;28;20057;-67
2022/12/22 11:46:09;;;;;;;0.98;0.98;;;7.60;94.40;;;;;;5030351;28;20125;-67
2022/12/22 11:48:53;;;;;;;0.00;0.00;;;7.60;94.30;;;;;;5030096;28;20046;-67
2022/12/22 11:51:34;;;;;;;0.00;0.00;;;7.60;94.40;;;;;;5030972;28;20403;-68
2022/12/22 11:54:38;;;;;;;0.13;0.13;;;7.60;94.20;;;;;;5030694;28;20148;-68
2022/12/22 11:57:51;;;;;;;0.00;0.00;;;7.60;94.30;;;;;;4976028;28;20405;-68
2022/12/22 12:00:17;;;;;;;;;;;7.70;94.30;;;;;;4931178;29;20389;-68
2022/12/22 12:03:10;;;;;;;0.00;0.00;;;7.80;94.20;;;;;;4915349;29;19923;-68
2022/12/22 12:05:38;;;;;;;;;;;7.80;94.20;;;;;;4995885;28;20091;-67
2022/12/22 12:08:36;;;;;;;0.20;0.20;;;7.80;94.10;;;;;;5030292;28;19928;-68
2022/12/22 12:11:04;;;;;;;0.00;0.00;;;7.70;93.90;;;;;;4967434;28;20053;-68
2022/12/22 12:13:44;;;;;;;0.00;0.00;;;7.70;94.00;;;;;;5030003;28;20049;-67
2022/12/22 12:16:24;;;;;;;0.00;0.00;;;7.70;93.90;;;;;;5012790;28;20466;-68
2022/12/22 12:18:58;;;;;;;0.30;0.30;;;7.70;94.00;;;;;;5030112;28;20130;-67
2022/12/22 12:21:27;;;;;;;0.00;0.00;;;7.80;93.90;;;;;;5029991;28;20100;-67
2022/12/22 12:24:26;;;;;;;0.00;0.00;;;7.80;94.00;;;;;;5030206;28;20168;-68
2022/12/22 12:27:04;;;;;;;0.95;0.90;;;7.80;93.80;;;;;;5029449;28;20087;-68
2022/12/22 12:29:39;;;;;;;0.00;0.00;;;7.80;93.90;;;;;;5030125;28;20049;-68
2022/12/22 12:32:58;;;;;;;0.00;0.00;;;7.90;93.90;;;;;;5030041;28;20050;-67
2022/12/22 12:35:48;;;;;;;0.00;0.00;;;7.90;93.90;;;;;;4930524;29;20048;-68
2022/12/22 12:38:43;;;;;;;0.00;0.00;;;8.00;93.90;;;;;;4930118;29;20047;-68
2022/12/22 12:41:08;;;;;;;0.10;0.10;;;8.10;93.90;;;;;;5023044;28;20059;-68
2022/12/22 12:43:34;;;;;;;0.00;0.00;;;8.10;93.90;;;;;;5029672;28;20053;-68
2022/12/22 12:46:01;;;;;;;0.00;0.00;;;8.20;93.80;;;;;;5029652;28;20132;-68
2022/12/22 12:48:28;;;;;;;2.85;1.65;;;8.30;93.80;;;;;;4995324;28;20041;-67
2022/12/22 12:50:54;;;;;;;0.03;0.03;;;8.30;93.70;;;;;;5029718;28;20065;-68
2022/12/22 12:53:22;;;;;;;0.55;0.55;;;8.30;93.70;;;;;;5029497;28;20112;-67
2022/12/22 12:55:53;;;;;;;0.00;0.00;;;8.40;93.70;;;;;;5029624;28;20077;-68
2022/12/22 12:58:34;;;;;;;0.00;0.00;;;8.40;93.60;;;;;;5029297;28;20060;-68
2022/12/22 13:01:30;;;;;;;0.10;0.10;;;8.40;93.60;;;;;;5029446;28;20370;-68
2022/12/22 13:03:56;;;;;;;0.00;0.00;;;8.50;93.60;;;;;;5029221;28;20045;-68
2022/12/22 13:06:46;;;;;;;0.00;0.00;;;8.50;93.60;;;;;;5029295;28;20041;-68
2022/12/22 13:09:21;;;;;;;0.00;0.00;;;8.40;93.40;;;;;;5029359;28;20045;-68
2022/12/22 13:11:49;;;;;;;0.00;0.00;;;8.50;93.40;;;;;;5029370;28;20041;-68
2022/12/22 13:14:52;;;;;;;0.00;0.00;;;8.50;93.40;;;;;;5028989;28;20485;-67
2022/12/22 13:17:48;;;;;;;0.00;0.00;;;8.50;93.40;;;;;;5029388;28;20044;-67
2022/12/22 13:20:18;;;;;;;0.00;0.00;;;8.50;93.40;;;;;;5029128;28;20044;-68
2022/12/22 13:22:45;;;;;;;0.00;0.00;;;8.40;93.10;;;;;;5029231;28;20045;-68
2022/12/22 13:25:15;;;;;;;1.27;1.17;;;8.40;93.20;;;;;;5029306;28;20049;-68
2022/12/22 13:27:41;;;;;;;0.00;0.00;;;8.50;93.30;;;;;;5029214;28;20155;-68
2022/12/22 13:30:15;;;;;;;0.00;0.00;;;8.50;93.30;;;;;;5029231;28;20092;-67
2022/12/22 13:32:43;;;;;;;0.00;0.00;;;8.60;93.40;;;;;;5028818;28;20053;-68
2022/12/22 13:35:18;;;;;;;0.00;0.00;;;8.60;93.40;;;;;;5011715;28;20053;-68
2022/12/22 13:37:48;;;;;;;0.00;0.00;;;8.70;93.50;;;;;;5028859;28;20052;-67
2022/12/22 13:40:19;;;;;;;0.00;0.00;;;8.80;93.40;;;;;;5029082;28;20058;-67
2022/12/22 13:42:55;;;;;;;0.00;0.00;;;8.80;93.30;;;;;;5029129;28;20064;-68
2022/12/22 13:46:01;;;;;;;0.00;0.00;;;8.90;93.10;;;;;;5028577;28;20111;-68
2022/12/22 13:48:32;;;;;;;0.00;0.00;;;8.90;92.70;;;;;;5007624;28;20068;-67
2022/12/22 13:51:04;;;;;;;0.10;0.10;;;8.90;92.20;;;;;;5028996;28;20052;-67
2022/12/22 13:53:46;;;;;;;0.00;0.00;;;9.10;92.20;;;;;;5011106;28;20103;-67
2022/12/22 13:56:21;;;;;;;0.00;0.00;;;9.10;92.10;;;;;;5028558;28;20049;-68
2022/12/22 13:58:54;;;;;;;1.48;1.20;;;9.10;92.10;;;;;;5028802;28;20053;-67
2022/12/22 14:01:20;;;;;;;0.00;0.00;;;9.10;91.70;;;;;;5028931;28;20490;-68
2022/12/22 14:04:02;;;;;;;0.00;0.00;;;9.00;91.40;;;;;;5028915;28;20124;-68
2022/12/22 14:06:34;;;;;;;0.38;0.38;;;9.00;91.40;;;;;;5028847;28;20041;-68
2022/12/22 14:09:09;;;;;;;0.00;0.00;;;9.00;91.50;;;;;;5028388;28;20046;-67
2022/12/22 14:11:35;;;;;;;0.00;0.00;;;9.00;91.10;;;;;;5027225;28;20038;-64
2022/12/22 14:14:05;;;;;;;0.00;0.00;;;9.00;91.80;;;;;;5010243;28;20040;-65
2022/12/22 14:16:30;;;;;;;0.00;0.00;;;9.00;91.20;;;;;;5029004;28;20045;-65
2022/12/22 14:18:58;;;;;;;0.00;0.00;;;8.90;91.30;;;;;;5024488;28;20045;-65
2022/12/22 14:21:24;;;;;;;0.00;0.00;;;8.90;91.30;;;;;;5018137;28;20421;-65
2022/12/22 14:23:50;;;;;;;0.00;0.00;;;8.90;91.20;;;;;;5021964;28;20038;-65
2022/12/22 14:26:25;;;;;;;0.30;0.30;;;8.80;91.30;;;;;;5027476;28;20136;-64
2022/12/22 14:28:53;;;;;;;0.00;0.00;;;8.80;91.20;;;;;;4993057;28;20088;-64
2022/12/22 14:31:19;;;;;;;0.00;0.00;;;8.70;91.30;;;;;;5026584;28;20041;-64
2022/12/22 14:34:03;;;;;;;0.00;0.00;;;8.70;91.40;;;;;;5025316;28;20030;-65
2022/12/22 14:36:36;;;;;;;0.10;0.10;;;8.60;91.10;;;;;;5025588;28;20116;-64
2022/12/22 14:39:08;;;;;;;0.00;0.00;;;8.60;91.40;;;;;;5025890;28;20073;-65
2022/12/22 14:41:50;;;;;;;0.00;0.00;;;8.50;91.50;;;;;;5033218;28;20052;-65
2022/12/22 14:44:22;;;;;;;0.00;0.00;;;8.40;91.40;;;;;;5034359;28;20378;-64
2022/12/22 14:47:15;;;;;;;0.00;0.00;;;8.40;91.60;;;;;;5038340;28;20064;-65
2022/12/22 14:50:03;;;;;;;0.80;0.73;;;8.40;91.60;;;;;;5034418;28;20056;-65
2022/12/22 14:52:43;;;;;;;0.00;0.00;;;8.30;91.70;;;;;;5015067;28;20076;-65
2022/12/22 14:55:36;;;;;;;1.80;1.65;;;8.40;91.70;;;;;;5036553;28;20516;-65
2022/12/22 14:58:14;;;;;;;0.08;0.08;;;8.30;91.70;;;;;;5038419;28;20044;-65
2022/12/22 15:00:44;;;;;;;0.00;0.00;;;8.30;91.80;;;;;;5035026;28;20052;-65
2022/12/22 15:03:32;;;;;;;0.00;0.00;;;8.20;91.90;;;;;;5031027;28;20049;-64
2022/12/22 15:06:22;;;;;;;0.00;0.00;;;8.20;91.90;;;;;;5035600;28;20056;-65
2022/12/22 15:08:48;;;;;;;0.00;0.00;;;8.10;91.90;;;;;;5035137;28;20112;-65
2022/12/22 15:11:18;;;;;;;0.00;0.00;;;8.10;92.10;;;;;;5036236;28;20049;-65
2022/12/22 15:13:45;;;;;;;0.00;0.00;;;8.00;92.10;;;;;;5009255;28;20081;-64
2022/12/22 15:16:14;;;;;;;0.00;0.00;;;7.90;92.20;;;;;;5016656;28;20045;-65
2022/12/22 15:18:40;;;;;;;0.00;0.00;;;7.90;92.20;;;;;;5038275;28;20076;-65
2022/12/22 15:21:05;;;;;;;0.00;0.00;;;7.90;92.30;;;;;;5034454;28;20045;-65
2022/12/22 15:23:31;;;;;;;0.00;0.00;;;7.90;92.30;;;;;;5035965;28;20469;-65
2022/12/22 15:25:56;;;;;;;0.20;0.20;;;7.90;92.30;;;;;;5035850;28;20568;-63
2022/12/22 15:28:22;;;;;;;0.00;0.00;;;7.80;92.50;;;;;;5035728;28;20053;-64
2022/12/22 15:30:48;;;;;;;0.15;0.15;;;8.50;94.40;;;;;;5033145;28;20083;-65
2022/12/22 15:33:17;;;;;;;0.05;0.05;;;8.60;93.00;;;;;;5034656;28;20541;-65
2022/12/22 15:35:44;;;;;;;0.00;0.00;;;8.60;92.50;;;;;;5032653;28;20056;-66
2022/12/22 15:38:15;;;;;;;0.00;0.00;;;8.30;91.90;;;;;;5005551;28;20077;-65
2022/12/22 15:40:41;;;;;;;1.35;0.90;;;8.20;92.00;;;;;;5024580;28;20049;-64
2022/12/22 15:43:07;;;;;;;0.00;0.00;;;8.00;91.50;;;;;;5025686;28;20052;-64
2022/12/22 15:45:35;;;;;;;0.00;0.00;;;7.90;91.60;;;;;;5023174;28;20050;-65
2022/12/22 15:48:01;;;;;;;0.10;0.10;;;7.90;91.80;;;;;;5022609;28;20050;-65
2022/12/22 15:50:34;;;;;;;0.00;0.00;;;7.80;91.70;;;;;;5030919;28;20200;-66
2022/12/22 15:53:02;;;;;;;0.00;0.00;;;7.60;91.90;;;;;;5027243;28;20052;-65
2022/12/22 15:55:29;;;;;;;1.65;0.80;;;7.50;91.80;;;;;;5028830;28;21135;-66
2022/12/22 15:57:57;;;;;;;0.00;0.00;;;7.50;91.90;;;;;;5025676;28;20048;-65
2022/12/22 16:00:23;;;;;;;0.00;0.00;;;7.40;91.90;;;;;;5027676;28;20033;-66
2022/12/22 16:02:49;;;;;;;0.00;0.00;;;7.40;91.90;;;;;;5004117;28;20745;-66
2022/12/22 16:05:15;;;;;;;0.20;0.20;;;7.30;91.90;;;;;;5028087;28;20042;-66
2022/12/22 16:07:42;;;;;;;0.00;0.00;;;7.30;92.00;;;;;;5024920;28;20123;-66
2022/12/22 16:10:21;;;;;;;0.00;0.00;;;7.20;92.00;;;;;;5025319;28;20034;-67
2022/12/22 16:12:52;;;;;;;0.00;0.00;;;7.10;92.00;;;;;;5025243;28;20053;-65
2022/12/22 16:15:19;;;;;;;0.00;0.00;;;7.10;92.10;;;;;;5025287;28;20045;-64
2022/12/22 16:17:45;;;;;;;0.10;0.10;;;7.10;92.10;;;;;;5023363;28;20057;-65
2022/12/22 16:20:11;;;;;;;0.55;0.55;;;7.00;92.10;;;;;;5026977;28;20033;-65
2022/12/22 16:22:37;;;;;;;0.20;0.20;;;7.00;92.20;;;;;;5028761;28;21629;-65
2022/12/22 16:25:06;;;;;;;0.00;0.00;;;6.90;92.20;;;;;;5026016;28;20461;-65
2022/12/22 16:27:33;;;;;;;0.00;0.00;;;7.00;92.30;;;;;;5025561;28;20069;-64
2022/12/22 16:29:59;;;;;;;0.75;0.30;;;7.00;92.30;;;;;;5023833;28;20049;-65
2022/12/22 16:32:27;;;;;;;0.00;0.00;;;7.20;93.40;;;;;;5027616;28;20613;-65
2022/12/22 16:35:15;;;;;;;0.00;0.00;;;7.30;92.70;;;;;;5027020;28;20041;-65
2022/12/22 16:37:41;;;;;;;0.00;0.00;;;7.20;92.60;;;;;;5014403;28;20132;-65
2022/12/22 16:40:08;;;;;;;0.00;0.00;;;7.10;92.50;;;;;;5024816;28;20115;-65
2022/12/22 16:42:35;;;;;;;0.68;0.50;;;7.10;92.50;;;;;;5022940;28;20056;-65
2022/12/22 16:45:03;;;;;;;0.00;0.00;;;7.00;92.50;;;;;;5025948;28;20144;-65
2022/12/22 16:47:32;;;;;;;0.08;0.08;;;7.00;92.60;;;;;;5029135;28;20052;-65
2022/12/22 16:49:59;;;;;;;0.00;0.00;;;7.00;92.60;;;;;;5029173;28;20378;-65
2022/12/22 16:52:39;;;;;;;0.00;0.00;;;7.00;92.60;;;;;;5025535;28;20132;-65
2022/12/22 16:55:13;;;;;;;0.10;0.10;;;7.00;92.60;;;;;;5023350;28;20131;-65
2022/12/22 16:57:38;;;;;;;0.00;0.00;;;7.00;92.70;;;;;;5029517;28;20048;-65
2022/12/22 17:00:05;;;;;;;0.08;0.08;;;7.10;92.70;;;;;;5025217;28;20405;-66